Mentor, MN

2:57 AM CDT on May 30, 2015 (GMT -0500)
Rural Gentilly | | Change Station
CLOSE
Current Station
Personal Weather Station
Location: Red Lake Falls, MN
Elevation: 1014 ft
Nearby Weather Stations
Active Advisory: Frost Advisory

Elev 1014 ft 47.82 °N, 96.37 °W | Updated 8 minutes ago

Clear
Clear
34.7 °F
Feels Like 30 °F
N
5.8
Wind Variable Wind from NE

Today
High -- | Low -- °F
--% Chance of Precip.
Yesterday
High -- | Low -- °F
Precip. -- in
5:32 AM 9:12 PM
Waxing Gibbous, 89% visible
Pressure 30.28 in
Visibility 10.0 miles
Clouds Clear
Windchill 30 °F
Dew Point 30 °F
Humidity 84%
Rainfall 0.00 in
Snow Depth Not available.
UV 0 out of 12
Pollen 9.40 out of 12
Air Quality Not available.
Flu Activity Sporadic
METAR KFSE 300733Z AUTO 35011G17KT 10SM CLR 01/M01 A3028 RMK AO2

More Conditions Fewer Conditions

Pressure 30.28 in
Visibility 10.0 miles
Clouds Clear
Windchill 30 °F
Dew Point 30 °F
Humidity 84%
Rainfall 0.00 in
Snow Depth Not available.
UV 0 out of 12
Pollen 9.40 out of 12
Air Quality Not available.
Flu Activity Sporadic
METAR KFSE 300733Z AUTO 35011G17KT 10SM CLR 01/M01 A3028 RMK AO2

More Conditions Fewer Conditions

10-Day Weather Forecast

Almanac

Astronomy

May. 30, 2015 Rise Set
Actual Time
Civil Twilight
Nautical Twilight
Astronomical Twilight
Moon
Length of Visible Light
Length of Day
Tomorrow will be .
, % of the Moon is Illuminated

Today's Extremes

State Highs State Lows

Community

WunderPhotos

Upload Photos

1,825,470 photos uploaded!

WunderBlogs® & News

Nearby

Air Quality

  Air Quality AQ Index Pollutant
Not available.

Snow Depth

Station Depth Elevation

Earthquake Activity

City Distance Mag. Time & Date
Minimum magnitude displayed is 2.5.

Coastal Water Temperatures

Place Temperature

Stations

Nearby Weather Stations

Station Location Temp. Windchill Dew Point Humidity Wind Precip. Elev Updated Type
                   
Frost Advisory
Statement as of 3:18 PM CDT on May 29, 2015

... Frost advisory in effect from 3 am to 9 am CDT Saturday...

The National Weather Service in Grand Forks has issued a frost
advisory... which is in effect from 3 am to 9 am CDT Saturday.

* Temperatures... in the low to middle 30s.

* Timing... after midnight to sunrise.

Precautionary/preparedness actions...

A frost advisory means that widespread frost is expected.
Sensitive outdoor plants may be killed if left uncovered.